Time;durP1;ratioP1;P1;durP2;ratioP2;P2;SDS_P1;SDS_P2;PMS_P1;PMS_P2;Temp;Humidity;BMP_temperature;BMP_pressure;BME280_temperature;BME280_humidity;BME280_pressure;Samples;Min_cycle;Max_cycle;Signal;HPM_P1;HPM_P2
2022/08/28 00:00:30;;;;;;;6.22;3.03;;;;;;;23.84;55.27;100517.03;4895360;29;20217;-65
2022/08/28 00:02:59;;;;;;;4.55;2.53;;;;;;;23.81;55.32;100524.81;4895409;29;20205;-66
2022/08/28 00:05:30;;;;;;;6.18;3.08;;;;;;;23.81;55.47;100527.50;4895585;29;20220;-65
2022/08/28 00:07:58;;;;;;;7.38;2.78;;;;;;;23.82;55.58;100526.47;4893784;29;20221;-66
2022/08/28 00:10:27;;;;;;;5.47;3.15;;;;;;;23.80;55.51;100528.56;4900883;29;20273;-66
2022/08/28 00:12:56;;;;;;;6.57;2.80;;;;;;;23.78;55.60;100519.84;4896321;29;20236;-65
2022/08/28 00:15:27;;;;;;;13.02;3.70;;;;;;;23.77;55.66;100527.13;4898668;29;20213;-65
2022/08/28 00:17:55;;;;;;;7.05;3.08;;;;;;;23.81;55.58;100524.81;4899962;29;20215;-65
2022/08/28 00:20:23;;;;;;;6.20;2.85;;;;;;;23.77;55.59;100532.56;4893105;29;20509;-65
2022/08/28 00:22:54;;;;;;;5.70;2.72;;;;;;;23.76;55.50;100533.63;4900993;29;20208;-65
2022/08/28 00:25:23;;;;;;;8.10;3.80;;;;;;;23.76;55.56;100527.38;4899636;29;20312;-65
2022/08/28 00:27:53;;;;;;;5.82;3.42;;;;;;;23.73;55.90;100530.56;4892063;29;20221;-65
2022/08/28 00:30:24;;;;;;;7.00;3.30;;;;;;;23.72;55.95;100527.03;4897655;29;20778;-65
2022/08/28 00:32:54;;;;;;;8.57;3.50;;;;;;;23.73;56.22;100530.56;4900471;29;20247;-65
2022/08/28 00:35:23;;;;;;;8.82;3.25;;;;;;;23.74;55.99;100524.09;4896235;29;20211;-65
2022/08/28 00:37:53;;;;;;;6.53;3.38;;;;;;;23.70;56.33;100523.72;4901525;29;20205;-65
2022/08/28 00:40:24;;;;;;;7.95;3.75;;;;;;;23.73;56.13;100523.28;4898215;29;20274;-65
2022/08/28 00:43:00;;;;;;;7.45;3.08;;;;;;;23.72;56.10;100523.50;4891814;29;20264;-65
2022/08/28 00:45:28;;;;;;;5.40;2.72;;;;;;;23.70;56.11;100522.91;4892192;29;20211;-66
2022/08/28 00:47:57;;;;;;;9.70;2.67;;;;;;;23.69;56.12;100523.94;4898825;29;20240;-67
2022/08/28 00:50:28;;;;;;;5.55;2.88;;;;;;;23.68;56.29;100517.72;4898061;29;20210;-65
2022/08/28 00:52:59;;;;;;;5.03;2.70;;;;;;;23.66;55.94;100516.31;4895274;29;20691;-66
2022/08/28 00:55:29;;;;;;;5.85;2.85;;;;;;;23.63;56.31;100520.31;4893207;29;20239;-66
2022/08/28 00:57:59;;;;;;;5.33;2.87;;;;;;;23.61;56.36;100520.53;4891224;29;20209;-66
2022/08/28 01:00:31;;;;;;;5.22;2.78;;;;;;;23.60;56.29;100516.16;4893056;29;20216;-66
2022/08/28 01:02:58;;;;;;;6.88;3.10;;;;;;;23.63;56.12;100523.84;4892804;29;20212;-66
2022/08/28 01:05:28;;;;;;;4.88;3.20;;;;;;;23.56;56.60;100520.41;4893833;29;20213;-66
2022/08/28 01:07:58;;;;;;;7.90;2.67;;;;;;;23.57;56.37;100530.16;4894668;29;20655;-66
2022/08/28 01:10:28;;;;;;;5.40;2.75;;;;;;;23.53;56.70;100523.56;4896191;29;20221;-66
2022/08/28 01:12:57;;;;;;;8.38;2.97;;;;;;;23.54;56.41;100519.81;4890974;29;20233;-66
2022/08/28 01:15:31;;;;;;;9.25;3.35;;;;;;;23.52;56.44;100521.91;4898044;29;20209;-66
2022/08/28 01:18:03;;;;;;;6.70;2.85;;;;;;;23.52;56.56;100537.34;4896574;29;20352;-66
2022/08/28 01:20:37;;;;;;;6.90;3.10;;;;;;;23.48;56.65;100530.72;4892708;29;20273;-65
2022/08/28 01:23:13;;;;;;;6.75;2.90;;;;;;;23.52;56.46;100527.34;4892851;29;20222;-65
2022/08/28 01:25:42;;;;;;;6.00;2.70;;;;;;;23.51;56.29;100525.69;4892578;29;20215;-66
2022/08/28 01:28:12;;;;;;;6.43;2.47;;;;;;;23.49;56.42;100535.91;4890409;29;20236;-66
2022/08/28 01:30:44;;;;;;;6.95;2.88;;;;;;;23.47;56.45;100537.19;4893615;29;20744;-66
2022/08/28 01:33:13;;;;;;;7.85;3.20;;;;;;;23.46;56.59;100533.66;4892499;29;20650;-66
2022/08/28 01:35:44;;;;;;;7.20;2.78;;;;;;;23.44;56.79;100546.56;4897452;29;20229;-66
2022/08/28 01:38:11;;;;;;;5.88;2.67;;;;;;;23.44;56.51;100541.16;4896475;29;20209;-66
2022/08/28 01:40:49;;;;;;;6.20;2.83;;;;;;;23.37;56.58;100539.63;4892982;29;20211;-66
2022/08/28 01:43:18;;;;;;;6.22;3.05;;;;;;;23.39;56.44;100537.50;4889025;29;20685;-66
2022/08/28 01:45:51;;;;;;;5.47;3.07;;;;;;;23.32;56.54;100534.88;4896962;29;20217;-66
2022/08/28 01:48:20;;;;;;;5.47;2.67;;;;;;;23.28;57.00;100536.41;4894638;29;20255;-65
2022/08/28 01:50:49;;;;;;;4.55;2.60;;;;;;;23.32;56.49;100532.16;4892950;29;20205;-65
2022/08/28 01:53:22;;;;;;;4.85;2.75;;;;;;;23.29;56.75;100527.25;4890975;29;20265;-65
2022/08/28 01:55:55;;;;;;;5.57;2.97;;;;;;;23.30;56.50;100533.47;4898532;29;20271;-66
2022/08/28 01:58:25;;;;;;;5.90;2.30;;;;;;;23.27;56.69;100532.88;4897750;29;20214;-66
2022/08/28 02:00:54;;;;;;;6.70;2.70;;;;;;;23.26;56.55;100527.69;4891966;29;20213;-66
2022/08/28 02:03:23;;;;;;;5.47;2.50;;;;;;;23.23;56.79;100536.25;4892254;29;20213;-66
2022/08/28 02:05:51;;;;;;;5.33;3.03;;;;;;;23.23;56.79;100533.53;4901111;29;20236;-66
2022/08/28 02:08:20;;;;;;;5.53;2.90;;;;;;;23.27;56.46;100532.03;4894673;29;20251;-66
2022/08/28 02:10:48;;;;;;;5.00;3.10;;;;;;;23.24;56.45;100532.50;4893947;29;20220;-66
2022/08/28 02:13:18;;;;;;;8.70;2.90;;;;;;;23.19;56.99;100533.19;4898356;29;20675;-66
2022/08/28 02:15:46;;;;;;;6.77;3.10;;;;;;;23.19;56.64;100540.47;4893360;29;20328;-66
2022/08/28 02:18:14;;;;;;;5.87;2.83;;;;;;;23.21;56.74;100539.22;4889604;29;20241;-65
2022/08/28 02:20:42;;;;;;;5.40;3.10;;;;;;;23.23;56.65;100541.66;4889232;29;20576;-65
2022/08/28 02:23:11;;;;;;;5.78;2.70;;;;;;;23.26;56.37;100533.09;4887859;29;20226;-65
2022/08/28 02:25:40;;;;;;;7.50;3.03;;;;;;;23.19;56.76;100543.19;4888806;29;20632;-65
2022/08/28 02:28:08;;;;;;;7.97;2.75;;;;;;;23.21;56.70;100536.50;4887571;29;20530;-65
2022/08/28 02:30:38;;;;;;;5.13;2.97;;;;;;;23.20;56.47;100544.84;4889571;29;20246;-64
2022/08/28 02:33:07;;;;;;;5.45;2.72;;;;;;;23.16;56.85;100535.53;4888700;29;20237;-65
2022/08/28 02:35:34;;;;;;;7.53;3.00;;;;;;;23.16;56.95;100538.22;4890645;29;20238;-66
2022/08/28 02:38:03;;;;;;;5.30;2.73;;;;;;;23.18;56.88;100536.13;4889042;29;20823;-65
2022/08/28 02:40:31;;;;;;;6.93;2.73;;;;;;;23.19;57.01;100535.91;4888715;29;20223;-65
2022/08/28 02:42:59;;;;;;;8.57;2.87;;;;;;;23.17;57.12;100537.19;4891237;29;20731;-65
2022/08/28 02:45:26;;;;;;;6.63;2.77;;;;;;;23.15;57.11;100533.88;4887784;29;20663;-65
2022/08/28 02:47:56;;;;;;;5.78;3.30;;;;;;;23.09;57.48;100537.50;4887897;29;20220;-65
2022/08/28 02:50:24;;;;;;;5.25;2.67;;;;;;;23.07;57.36;100539.59;4886473;29;20224;-65
2022/08/28 02:52:52;;;;;;;4.88;2.80;;;;;;;23.09;57.40;100537.50;4887324;29;20229;-65
2022/08/28 02:55:20;;;;;;;3.80;2.23;;;;;;;23.14;57.11;100540.31;4892050;29;20284;-65
2022/08/28 02:57:48;;;;;;;4.70;2.30;;;;;;;23.12;57.22;100537.06;4908232;29;20215;-66
2022/08/28 03:00:20;;;;;;;6.25;2.90;;;;;;;23.12;57.13;100537.88;4908291;29;20217;-65
2022/08/28 03:02:48;;;;;;;4.70;2.77;;;;;;;23.11;57.30;100543.50;4912662;29;20220;-65
2022/08/28 03:05:20;;;;;;;7.60;2.30;;;;;;;23.12;57.28;100531.63;4911585;29;20721;-65
2022/08/28 03:07:48;;;;;;;5.47;2.80;;;;;;;23.12;57.28;100532.47;4912912;29;20209;-65
2022/08/28 03:10:17;;;;;;;5.07;2.40;;;;;;;23.15;56.95;100536.56;4914355;29;20729;-65
2022/08/28 03:12:45;;;;;;;7.00;2.55;;;;;;;23.14;57.35;100533.03;4913504;29;20605;-65
2022/08/28 03:15:13;;;;;;;4.07;2.30;;;;;;;23.11;57.11;100528.09;4907974;29;20221;-65
2022/08/28 03:17:41;;;;;;;8.10;3.07;;;;;;;23.05;57.86;100536.28;4910092;29;20201;-66
2022/08/28 03:20:11;;;;;;;3.63;2.67;;;;;;;23.08;57.38;100530.44;4910422;29;20705;-66
2022/08/28 03:25:26;;;;;;;6.33;2.77;;;;;;;23.04;57.49;100529.25;4908664;29;20217;-66
2022/08/28 03:27:54;;;;;;;5.40;2.60;;;;;;;23.11;57.25;100532.69;4910003;29;20295;-66
2022/08/28 03:30:23;;;;;;;5.53;2.83;;;;;;;23.13;57.41;100536.00;4907787;29;20217;-65
2022/08/28 03:32:50;;;;;;;4.03;2.23;;;;;;;23.12;57.17;100537.88;4908926;29;20243;-65
2022/08/28 03:35:19;;;;;;;5.93;2.40;;;;;;;23.10;57.32;100534.56;4909439;29;20244;-66
2022/08/28 03:37:48;;;;;;;7.23;2.93;;;;;;;23.08;57.65;100531.25;4907707;29;20586;-66
2022/08/28 03:40:16;;;;;;;6.20;2.60;;;;;;;23.07;57.78;100534.19;4907301;29;20551;-66
2022/08/28 03:42:44;;;;;;;5.00;2.60;;;;;;;23.00;57.65;100538.88;4912793;29;20231;-65
2022/08/28 03:45:21;;;;;;;6.80;2.40;;;;;;;22.98;57.86;100544.50;4911257;29;20212;-65
2022/08/28 03:47:49;;;;;;;8.67;2.70;;;;;;;22.87;58.63;100537.97;4913121;29;20205;-66
2022/08/28 03:50:18;;;;;;;6.17;2.87;;;;;;;22.92;58.07;100547.28;4912090;29;20605;-65
2022/08/28 03:52:48;;;;;;;5.67;2.90;;;;;;;22.92;58.06;100539.19;4912140;29;20828;-65
2022/08/28 03:55:17;;;;;;;5.63;2.50;;;;;;;22.94;57.97;100545.19;4907502;29;20794;-65
2022/08/28 03:57:45;;;;;;;11.93;3.30;;;;;;;22.93;58.23;100543.53;4891678;29;20301;-66
2022/08/28 04:00:15;;;;;;;8.43;2.87;;;;;;;22.94;58.00;100540.59;4893683;29;20221;-66
2022/08/28 04:02:43;;;;;;;8.27;3.20;;;;;;;22.95;57.99;100546.84;4894714;29;20205;-66
2022/08/28 04:05:12;;;;;;;6.73;2.80;;;;;;;22.93;57.93;100541.66;4892398;29;20213;-66
2022/08/28 04:07:40;;;;;;;7.00;2.97;;;;;;;22.91;57.75;100545.63;4896989;29;20274;-66
2022/08/28 04:10:10;;;;;;;5.73;2.33;;;;;;;22.93;57.88;100548.94;4892175;29;20228;-66
2022/08/28 04:12:38;;;;;;;5.87;2.50;;;;;;;22.92;58.05;100548.13;4894698;29;20210;-66
2022/08/28 04:15:07;;;;;;;5.80;2.63;;;;;;;22.92;57.67;100547.28;4902855;29;20238;-67
2022/08/28 04:17:37;;;;;;;4.97;2.50;;;;;;;22.94;57.80;100553.31;4898905;29;20211;-65
2022/08/28 04:20:07;;;;;;;6.13;2.57;;;;;;;22.90;57.98;100550.22;4906997;29;20211;-66
2022/08/28 04:22:35;;;;;;;3.83;2.37;;;;;;;22.88;57.89;100563.13;4897525;29;20504;-66
2022/08/28 04:25:04;;;;;;;4.60;2.50;;;;;;;22.89;58.08;100565.59;4908603;29;20265;-66
2022/08/28 04:27:33;;;;;;;6.70;2.73;;;;;;;22.92;58.06;100567.03;4895725;29;20228;-67
2022/08/28 04:30:01;;;;;;;6.63;2.93;;;;;;;22.88;58.21;100568.53;4886969;29;20355;-66
2022/08/28 04:32:29;;;;;;;4.80;2.80;;;;;;;22.86;57.94;100563.38;4896313;29;20219;-67
2022/08/28 04:34:57;;;;;;;8.97;3.00;;;;;;;22.84;58.06;100567.34;4898155;29;20247;-66
2022/08/28 04:37:25;;;;;;;10.63;3.23;;;;;;;22.66;59.22;100570.84;4900144;29;20686;-66
2022/08/28 04:39:54;;;;;;;6.83;2.90;;;;;;;22.63;59.32;100570.44;4900518;29;20730;-65
2022/08/28 04:42:22;;;;;;;7.30;3.00;;;;;;;22.60;59.30;100565.53;4900662;29;20200;-65
2022/08/28 04:44:55;;;;;;;8.23;3.33;;;;;;;22.57;59.50;100558.69;4898741;29;20221;-66
2022/08/28 04:47:23;;;;;;;6.37;2.80;;;;;;;22.57;59.17;100558.69;4903007;29;20220;-66
2022/08/28 04:49:51;;;;;;;7.97;2.60;;;;;;;22.59;59.28;100564.69;4896994;29;20585;-66
2022/08/28 04:52:18;;;;;;;6.13;2.80;;;;;;;22.61;59.18;100570.69;4895335;29;20309;-66
2022/08/28 04:54:46;;;;;;;6.03;2.67;;;;;;;22.62;58.96;100569.63;4896333;29;20695;-66
2022/08/28 04:57:14;;;;;;;9.73;2.60;;;;;;;22.67;59.09;100574.38;4898664;29;20213;-66
2022/08/28 04:59:43;;;;;;;10.10;2.40;;;;;;;22.71;58.83;100567.47;4903405;29;20218;-66
2022/08/28 05:02:12;;;;;;;7.37;2.33;;;;;;;22.74;58.50;100570.56;4896627;29;20217;-65
2022/08/28 05:04:40;;;;;;;6.63;3.30;;;;;;;22.72;58.80;100574.50;4898684;29;20249;-66
2022/08/28 05:07:08;;;;;;;5.97;2.83;;;;;;;22.73;58.47;100579.69;4898208;29;20218;-66
2022/08/28 05:09:36;;;;;;;6.10;2.97;;;;;;;22.73;58.76;100592.38;4892459;29;20305;-66
2022/08/28 05:12:05;;;;;;;6.83;2.90;;;;;;;22.77;58.39;100583.66;4895572;29;20220;-66
2022/08/28 05:14:33;;;;;;;10.80;2.67;;;;;;;22.74;58.42;100586.78;4897158;29;20226;-64
2022/08/28 05:17:00;;;;;;;10.23;2.87;;;;;;;22.75;58.31;100588.44;4894105;29;20221;-64
2022/08/28 05:19:30;;;;;;;8.53;2.80;;;;;;;22.75;58.46;100588.44;4892330;29;20578;-64
2022/08/28 05:21:57;;;;;;;10.73;3.07;;;;;;;22.73;58.57;100598.63;4892859;29;20217;-65
2022/08/28 05:24:25;;;;;;;8.43;3.47;;;;;;;22.76;58.47;100598.22;4899560;29;20213;-66
2022/08/28 05:26:53;;;;;;;8.23;2.97;;;;;;;22.72;58.56;100599.66;4893152;29;20217;-65
2022/08/28 05:29:21;;;;;;;9.07;2.93;;;;;;;22.72;58.92;100602.38;4896089;29;20217;-65
2022/08/28 05:31:51;;;;;;;7.13;2.83;;;;;;;22.71;58.83;100603.41;4893100;29;20304;-65
2022/08/28 05:34:20;;;;;;;10.17;2.97;;;;;;;22.74;58.73;100603.00;4892581;29;20237;-66
2022/08/28 05:36:51;;;;;;;7.73;2.63;;;;;;;22.75;58.79;100607.38;4896647;29;20651;-66
2022/08/28 05:39:18;;;;;;;8.87;2.57;;;;;;;22.72;58.91;100607.78;4895896;29;20220;-65
2022/08/28 05:41:46;;;;;;;8.57;2.83;;;;;;;22.74;58.84;100610.25;4901286;29;20672;-65
2022/08/28 05:44:16;;;;;;;6.33;2.57;;;;;;;22.73;59.18;100612.13;4899323;29;20212;-65
2022/08/28 05:46:47;;;;;;;7.43;2.57;;;;;;;22.80;58.71;100607.50;4901127;29;20663;-64
2022/08/28 05:49:16;;;;;;;10.37;3.30;;;;;;;22.79;58.78;100619.38;4898356;29;20755;-65
2022/08/28 05:51:45;;;;;;;6.67;2.60;;;;;;;22.80;58.41;100614.78;4899215;29;20210;-65
2022/08/28 05:54:14;;;;;;;6.33;2.80;;;;;;;22.86;58.48;100622.84;4894105;29;20589;-64
2022/08/28 05:56:44;;;;;;;6.53;2.77;;;;;;;22.89;58.28;100619.69;4891727;29;20249;-65
2022/08/28 05:59:21;;;;;;;5.40;2.50;;;;;;;22.87;58.62;100620.94;4895198;29;20213;-64
2022/08/28 06:01:49;;;;;;;6.30;2.60;;;;;;;22.84;58.33;100616.00;4893431;29;20206;-65
2022/08/28 06:04:22;;;;;;;9.50;2.83;;;;;;;22.80;58.56;100621.03;4897638;29;20300;-65
2022/08/28 06:06:50;;;;;;;7.43;2.87;;;;;;;22.80;58.42;100621.03;4900412;29;20234;-65
2022/08/28 06:09:22;;;;;;;7.80;2.83;;;;;;;22.84;58.24;100630.38;4902515;29;20345;-65
2022/08/28 06:11:57;;;;;;;7.97;2.63;;;;;;;22.86;58.50;100630.13;4898726;29;20641;-65
2022/08/28 06:14:26;;;;;;;8.23;2.73;;;;;;;22.86;58.59;100625.56;4899267;29;20344;-65
2022/08/28 06:16:55;;;;;;;6.82;3.22;;;;;;;22.92;58.07;100628.41;4901994;29;20225;-65
2022/08/28 06:19:26;;;;;;;5.87;2.40;;;;;;;22.81;58.35;100628.09;4898958;29;21673;-65
2022/08/28 06:21:56;;;;;;;5.57;2.77;;;;;;;22.84;58.27;100626.84;4900931;29;20214;-66
2022/08/28 06:24:26;;;;;;;7.90;2.77;;;;;;;22.88;58.00;100623.44;4895630;29;20213;-65
2022/08/28 06:26:54;;;;;;;9.90;3.47;;;;;;;22.85;57.63;100615.78;4894891;29;20205;-64
2022/08/28 06:29:26;;;;;;;6.60;2.63;;;;;;;22.86;57.81;100622.03;4894399;29;20248;-64
2022/08/28 06:31:55;;;;;;;7.77;2.43;;;;;;;22.89;57.50;100619.69;4895693;29;20239;-64
2022/08/28 06:34:23;;;;;;;9.50;2.80;;;;;;;22.94;57.45;100623.59;4894336;29;20261;-65
2022/08/28 06:36:50;;;;;;;10.13;3.13;;;;;;;23.00;57.08;100628.09;4895346;29;20233;-65
2022/08/28 06:39:21;;;;;;;14.37;2.70;;;;;;;23.02;57.27;100631.41;4898146;29;20246;-64
2022/08/28 06:41:51;;;;;;;8.73;3.08;;;;;;;23.10;57.14;100636.53;4895726;29;20556;-62
2022/08/28 06:44:20;;;;;;;9.43;2.77;;;;;;;23.15;56.72;100640.19;4895549;29;20226;-63
2022/08/28 06:46:50;;;;;;;9.00;2.87;;;;;;;23.21;56.60;100638.47;4894228;29;20249;-63
2022/08/28 06:49:18;;;;;;;8.93;3.00;;;;;;;23.25;56.04;100642.38;4890327;29;20202;-63
2022/08/28 06:51:46;;;;;;;10.63;2.80;;;;;;;23.24;56.39;100644.25;4902876;29;20577;-63
2022/08/28 06:54:14;;;;;;;7.70;2.70;;;;;;;23.24;56.31;100638.81;4904154;29;20371;-63
2022/08/28 06:56:51;;;;;;;8.90;2.30;;;;;;;23.24;55.80;100644.25;4896006;29;20331;-63
2022/08/28 06:59:18;;;;;;;6.63;2.42;;;;;;;23.26;55.84;100646.72;4893435;29;20576;-63
2022/08/28 07:01:46;;;;;;;8.05;2.30;;;;;;;23.25;55.82;100658.59;4892905;29;20217;-63
2022/08/28 07:04:14;;;;;;;7.88;2.20;;;;;;;23.18;55.66;100657.84;4893366;29;20252;-63
2022/08/28 07:06:44;;;;;;;8.68;2.00;;;;;;;23.19;55.40;100659.50;4893458;29;20209;-63
2022/08/28 07:09:13;;;;;;;7.85;2.55;;;;;;;23.19;55.62;100651.41;4893897;29;20586;-63
2022/08/28 07:11:45;;;;;;;6.18;2.45;;;;;;;23.26;55.83;100650.25;4897502;29;20667;-63
2022/08/28 07:14:14;;;;;;;8.83;2.30;;;;;;;23.26;55.68;100661.06;4900732;29;20534;-63
2022/08/28 07:16:43;;;;;;;5.28;2.20;;;;;;;23.32;55.69;100656.63;4894227;29;20543;-63
2022/08/28 07:19:12;;;;;;;9.68;3.22;;;;;;;23.40;55.53;100659.03;4893376;29;20244;-63
2022/08/28 07:21:42;;;;;;;8.37;2.57;;;;;;;23.43;55.41;100663.16;4894935;29;20753;-65
2022/08/28 07:24:13;;;;;;;6.40;2.05;;;;;;;23.35;55.64;100672.41;4907846;29;20209;-67
2022/08/28 07:26:42;;;;;;;6.18;2.88;;;;;;;23.35;55.90;100667.00;4898075;29;20213;-67
2022/08/28 07:29:10;;;;;;;6.97;2.13;;;;;;;23.34;55.72;100665.34;4892579;29;20587;-69
2022/08/28 07:31:42;;;;;;;10.75;2.85;;;;;;;23.35;55.78;100672.41;4895440;29;20265;-66
2022/08/28 07:34:12;;;;;;;8.88;2.88;;;;;;;23.38;55.73;100665.75;4887628;29;20269;-65
2022/08/28 07:36:40;;;;;;;8.38;2.50;;;;;;;23.29;55.70;100667.09;4896747;29;20454;-68
2022/08/28 07:39:09;;;;;;;10.43;2.40;;;;;;;23.29;55.85;100670.63;4900117;29;20217;-71
2022/08/28 07:41:41;;;;;;;8.52;2.40;;;;;;;23.29;55.92;100673.34;4894272;29;20305;-70
2022/08/28 07:47:01;;;;;;;7.97;2.50;;;;;;;23.28;56.25;100677.09;4900465;29;20537;-69
2022/08/28 07:49:28;;;;;;;10.05;2.85;;;;;;;23.29;56.38;100684.16;4898080;29;20240;-69
2022/08/28 07:51:56;;;;;;;8.73;2.77;;;;;;;23.27;56.05;100687.09;4896838;29;20217;-68
2022/08/28 07:54:24;;;;;;;7.78;3.00;;;;;;;23.26;56.01;100681.91;4900946;29;20217;-67
2022/08/28 07:56:52;;;;;;;11.18;2.83;;;;;;;23.31;55.75;100692.06;4895668;29;20245;-67
2022/08/28 07:59:20;;;;;;;12.23;3.40;;;;;;;23.33;55.81;100690.75;4896866;29;20220;-68
2022/08/28 08:01:50;;;;;;;7.82;2.45;;;;;;;23.37;55.81;100691.97;4892512;29;20223;-67
2022/08/28 08:04:22;;;;;;;7.93;2.40;;;;;;;23.41;55.74;100689.63;4894924;29;20647;-65
2022/08/28 08:06:51;;;;;;;9.57;2.60;;;;;;;23.44;55.84;100686.47;4899898;29;20210;-66
2022/08/28 08:09:25;;;;;;;8.88;2.70;;;;;;;23.47;55.96;100684.16;4894065;29;20726;-66
2022/08/28 08:11:56;;;;;;;6.72;2.60;;;;;;;23.56;55.69;100687.41;4892896;29;20201;-66
2022/08/28 08:14:24;;;;;;;11.18;3.05;;;;;;;23.64;55.29;100695.19;4897373;29;20259;-66
2022/08/28 08:16:52;;;;;;;9.73;2.60;;;;;;;23.68;55.17;100695.56;4892298;29;20757;-66
2022/08/28 08:19:21;;;;;;;11.57;3.22;;;;;;;23.78;54.61;100701.25;4896735;29;22414;-65
2022/08/28 08:21:50;;;;;;;9.60;2.80;;;;;;;23.89;54.33;100692.34;4891254;29;20209;-65
2022/08/28 08:24:24;;;;;;;7.00;2.30;;;;;;;24.02;54.28;100694.84;4891196;29;20719;-65
2022/08/28 08:26:55;;;;;;;12.32;2.83;;;;;;;24.09;54.38;100700.22;4894075;29;20342;-65
2022/08/28 08:29:28;;;;;;;8.52;2.80;;;;;;;24.14;54.30;100690.31;4890521;29;20721;-65
2022/08/28 08:31:57;;;;;;;7.65;2.40;;;;;;;24.19;53.78;100695.03;4893418;29;20214;-63
2022/08/28 08:34:26;;;;;;;12.10;3.30;;;;;;;24.22;53.73;100695.44;4892096;29;20222;-63
2022/08/28 08:36:54;;;;;;;11.88;2.97;;;;;;;24.35;53.48;100700.66;4896795;29;20233;-64
2022/08/28 08:39:22;;;;;;;17.38;4.03;;;;;;;24.48;53.16;100699.59;4897416;29;20781;-64
2022/08/28 08:41:54;;;;;;;12.65;3.55;;;;;;;24.68;52.56;100693.84;4904697;29;20655;-68
2022/08/28 08:44:26;;;;;;;6.57;2.60;;;;;;;24.93;51.98;100697.19;4898762;29;20232;-67
2022/08/28 08:47:10;;;;;;;9.32;2.63;;;;;;;25.10;51.32;100702.69;4896768;29;20201;-65
2022/08/28 08:49:49;;;;;;;9.52;2.85;;;;;;;25.16;51.21;100701.75;4893360;29;20212;-65
2022/08/28 08:52:33;;;;;;;6.32;2.42;;;;;;;25.18;50.91;100699.63;4890064;29;20216;-65
2022/08/28 08:55:19;;;;;;;11.30;3.22;;;;;;;25.17;50.96;100702.56;4906321;29;20244;-65
2022/08/28 08:57:51;;;;;;;9.57;3.17;;;;;;;25.13;51.34;100706.84;4896808;29;20757;-65
2022/08/28 09:00:20;;;;;;;8.45;2.53;;;;;;;25.11;51.36;100705.19;4888297;29;20216;-64
2022/08/28 09:02:56;;;;;;;8.63;2.80;;;;;;;25.15;51.33;100704.72;4892796;29;20241;-65
2022/08/28 09:05:39;;;;;;;6.20;2.75;;;;;;;25.16;51.15;100703.63;4898249;29;20742;-66
2022/08/28 09:08:11;;;;;;;10.30;2.92;;;;;;;25.14;51.43;100708.50;4896456;29;20201;-66
2022/08/28 09:10:51;;;;;;;10.88;3.15;;;;;;;25.10;51.22;100713.56;4903795;29;20217;-65
2022/08/28 09:13:28;;;;;;;11.60;3.42;;;;;;;25.02;51.37;100716.63;4895413;29;20209;-65
2022/08/28 09:15:56;;;;;;;9.73;2.90;;;;;;;24.98;51.31;100710.84;4895665;29;20237;-65
2022/08/28 09:18:26;;;;;;;6.90;2.83;;;;;;;24.95;51.30;100716.75;4895726;29;20225;-65
2022/08/28 09:20:58;;;;;;;9.20;2.42;;;;;;;24.97;51.19;100720.06;4895231;29;20243;-65
2022/08/28 09:23:27;;;;;;;7.28;2.63;;;;;;;25.01;51.16;100720.41;4895530;29;20213;-65
2022/08/28 09:25:58;;;;;;;12.63;2.97;;;;;;;25.19;50.48;100711.31;4895640;29;20304;-65
2022/08/28 09:28:33;;;;;;;9.73;2.83;;;;;;;25.40;50.04;100707.97;4895574;29;20645;-65
2022/08/28 09:31:04;;;;;;;6.75;3.30;;;;;;;25.56;49.60;100717.25;4890474;29;20209;-65
2022/08/28 09:33:39;;;;;;;8.93;2.83;;;;;;;25.74;49.33;100726.06;4895836;29;20221;-64
2022/08/28 09:36:32;;;;;;;7.68;3.08;;;;;;;25.91;47.76;100722.59;4895102;29;20273;-66
2022/08/28 09:39:12;;;;;;;8.90;2.92;;;;;;;26.14;47.46;100723.28;4895769;29;20671;-65
2022/08/28 09:44:48;;;;;;;7.45;3.10;;;;;;;25.97;47.88;100724.31;4895303;29;20218;-65
2022/08/28 09:47:44;;;;;;;11.38;3.22;;;;;;;26.05;47.51;100718.50;4894558;29;20205;-66
2022/08/28 09:50:33;;;;;;;10.85;3.03;;;;;;;26.16;47.56;100717.63;4895261;29;20218;-65
2022/08/28 09:53:19;;;;;;;11.00;2.78;;;;;;;26.23;47.33;100713.66;4894344;29;20222;-66
2022/08/28 09:55:55;;;;;;;6.93;2.67;;;;;;;26.21;47.36;100710.38;4893934;29;20269;-65
2022/08/28 09:58:28;;;;;;;6.95;2.55;;;;;;;26.21;47.26;100709.56;4892517;29;20198;-65
2022/08/28 10:01:02;;;;;;;5.50;2.65;;;;;;;26.23;46.82;100723.72;4892068;29;20582;-65
2022/08/28 10:03:38;;;;;;;7.72;2.90;;;;;;;26.11;47.08;100714.81;4893788;29;20214;-65
2022/08/28 10:06:11;;;;;;;8.75;3.00;;;;;;;26.07;47.40;100721.78;4905148;29;20213;-65
2022/08/28 10:08:54;;;;;;;13.52;3.63;;;;;;;25.99;46.85;100719.47;4892695;29;20209;-64
2022/08/28 10:11:30;;;;;;;10.10;2.90;;;;;;;25.92;47.28;100714.19;4890555;29;20371;-64
2022/08/28 10:14:09;;;;;;;9.13;2.70;;;;;;;25.89;46.95;100711.13;4889958;29;20209;-65
2022/08/28 10:16:46;;;;;;;7.40;2.70;;;;;;;25.82;47.17;100717.53;4895823;29;20578;-65
2022/08/28 10:19:25;;;;;;;7.28;2.72;;;;;;;25.77;47.94;100720.13;4895079;29;20223;-65
2022/08/28 10:22:03;;;;;;;8.02;3.28;;;;;;;25.80;47.71;100721.56;4895262;29;20221;-65
2022/08/28 10:24:56;;;;;;;5.22;2.40;;;;;;;25.87;47.41;100714.09;4894650;29;20216;-65
2022/08/28 10:27:40;;;;;;;8.05;3.05;;;;;;;25.81;46.71;100718.59;4875166;29;20245;-64
2022/08/28 10:30:12;;;;;;;7.20;2.80;;;;;;;25.77;47.27;100717.44;4888745;29;20206;-65
2022/08/28 10:33:00;;;;;;;6.97;2.90;;;;;;;25.73;47.54;100719.00;4895060;29;20209;-65
2022/08/28 10:35:40;;;;;;;6.93;2.95;;;;;;;25.78;47.41;100710.09;4894526;29;20583;-65
2022/08/28 10:38:11;;;;;;;6.35;2.45;;;;;;;25.85;46.80;100711.63;4894521;29;20229;-66
2022/08/28 10:40:50;;;;;;;5.30;2.75;;;;;;;25.98;46.45;100712.38;4894821;29;20213;-65
2022/08/28 10:43:23;;;;;;;6.65;3.25;;;;;;;26.03;46.30;100707.91;4894717;29;20256;-65
2022/08/28 10:45:53;;;;;;;6.68;2.67;;;;;;;26.05;45.72;100708.44;4894363;29;20211;-65
2022/08/28 10:48:25;;;;;;;8.13;3.13;;;;;;;26.06;45.14;100706.56;4894552;29;20300;-65
2022/08/28 10:50:59;;;;;;;5.35;2.88;;;;;;;26.02;45.13;100705.41;4896308;29;20207;-65
2022/08/28 10:53:32;;;;;;;6.20;3.00;;;;;;;25.98;45.16;100706.94;4903253;29;20585;-65
2022/08/28 10:56:06;;;;;;;5.70;2.63;;;;;;;26.04;44.84;100708.69;4893675;29;20600;-65
2022/08/28 10:58:38;;;;;;;7.63;2.83;;;;;;;26.08;44.98;100704.44;4894558;29;20228;-65
2022/08/28 11:01:09;;;;;;;9.75;3.10;;;;;;;26.09;44.82;100700.66;4896188;29;20211;-65
2022/08/28 11:03:42;;;;;;;6.32;2.65;;;;;;;26.10;45.16;100705.00;4899974;29;20221;-66
2022/08/28 11:06:18;;;;;;;7.60;2.75;;;;;;;26.13;44.70;100696.34;4893623;29;20651;-65
2022/08/28 11:08:53;;;;;;;8.45;3.10;;;;;;;26.15;44.58;100691.50;4888234;29;20210;-65
2022/08/28 11:11:42;;;;;;;6.63;3.13;;;;;;;26.14;44.44;100689.84;4894858;29;20642;-65
2022/08/28 11:14:22;;;;;;;4.82;2.78;;;;;;;26.10;44.13;100694.16;4894477;29;20304;-66
2022/08/28 11:16:50;;;;;;;6.30;3.38;;;;;;;26.13;44.15;100686.31;4893590;29;20210;-65
2022/08/28 11:19:42;;;;;;;7.22;2.58;;;;;;;27.04;41.71;100691.59;4898068;29;20374;-66
2022/08/28 11:22:17;;;;;;;7.53;2.20;;;;;;;28.60;39.19;100695.22;4897342;29;20265;-65
2022/08/28 11:24:55;;;;;;;6.93;2.78;;;;;;;30.08;36.88;100689.41;4897817;29;20639;-65
2022/08/28 11:27:33;;;;;;;6.43;2.65;;;;;;;32.50;32.86;100681.44;4896593;29;20213;-65
2022/08/28 11:30:31;;;;;;;8.52;3.08;;;;;;;33.12;31.26;100687.94;4895708;29;20214;-65
2022/08/28 11:33:08;;;;;;;8.07;2.45;;;;;;;32.65;31.77;100680.44;4897878;29;20713;-65
2022/08/28 11:35:47;;;;;;;7.07;2.30;;;;;;;33.15;30.81;100681.88;4897379;29;20245;-65
2022/08/28 11:38:47;;;;;;;6.10;2.88;;;;;;;32.68;31.96;100674.41;4896843;29;20308;-65
2022/08/28 11:41:21;;;;;;;7.53;2.30;;;;;;;31.58;33.54;100680.38;4897490;29;20224;-66
2022/08/28 11:44:11;;;;;;;8.88;2.53;;;;;;;31.03;34.24;100671.28;4897649;29;20288;-65
2022/08/28 11:46:41;;;;;;;6.00;2.53;;;;;;;30.50;35.86;100680.13;4895237;29;20209;-64
2022/08/28 11:49:37;;;;;;;3.28;1.92;;;;;;;30.06;35.52;100679.84;4904679;29;20652;-64
2022/08/28 11:52:14;;;;;;;8.30;3.13;;;;;;;29.60;36.49;100679.72;4894229;29;20214;-67